createdAt,value
2023-01-08T00:02:14.334Z,11.92
2023-01-08T00:05:13.278Z,11.94
2023-01-08T00:07:55.803Z,11.96
2023-01-08T00:10:22.841Z,11.96
2023-01-08T00:12:49.926Z,12.00
2023-01-08T00:15:28.039Z,12.02
2023-01-08T00:17:55.039Z,12.02
2023-01-08T00:20:25.035Z,12.04
2023-01-08T00:23:19.829Z,12.06
2023-01-08T00:25:47.285Z,12.06
2023-01-08T00:28:15.386Z,12.05
2023-01-08T00:30:42.909Z,12.07
2023-01-08T00:33:10.970Z,12.07
2023-01-08T00:35:39.456Z,12.08
2023-01-08T00:38:10.301Z,12.10
2023-01-08T00:40:40.650Z,12.11
2023-01-08T00:43:08.259Z,12.15
2023-01-08T00:45:35.799Z,12.18
2023-01-08T00:48:05.583Z,12.22
2023-01-08T00:50:35.700Z,12.26
2023-01-08T00:53:06.841Z,12.28
2023-01-08T00:55:34.309Z,12.35
2023-01-08T00:58:01.245Z,12.41
2023-01-08T01:00:30.997Z,12.46
2023-01-08T01:03:00.903Z,12.52
2023-01-08T01:05:27.854Z,12.58
2023-01-08T01:08:07.135Z,12.66
2023-01-08T01:10:40.371Z,12.71
2023-01-08T01:13:29.499Z,12.78
2023-01-08T01:16:28.159Z,12.80
2023-01-08T01:18:58.283Z,12.89
2023-01-08T01:21:35.163Z,12.94
2023-01-08T01:24:07.232Z,12.98
2023-01-08T01:26:36.714Z,13.03
2023-01-08T01:29:06.764Z,13.08
2023-01-08T01:31:55.661Z,13.11
2023-01-08T01:34:43.908Z,13.16
2023-01-08T01:39:49.246Z,13.25
2023-01-08T01:42:38.265Z,13.28
2023-01-08T01:45:19.503Z,13.32
2023-01-08T01:48:11.510Z,13.34
2023-01-08T01:50:49.749Z,13.38
2023-01-08T01:53:51.502Z,13.41
2023-01-08T01:56:18.678Z,13.43
2023-01-08T01:58:48.443Z,13.45
2023-01-08T02:01:20.100Z,13.50
2023-01-08T02:03:50.127Z,13.50
2023-01-08T02:06:28.535Z,13.52
2023-01-08T02:08:57.432Z,13.56
2023-01-08T02:11:43.017Z,13.57
2023-01-08T02:14:37.971Z,13.59
2023-01-08T02:17:10.874Z,13.59
2023-01-08T02:19:41.391Z,13.63
2023-01-08T02:22:42.358Z,13.67
2023-01-08T02:25:40.721Z,13.69
2023-01-08T02:28:13.317Z,13.70
2023-01-08T02:31:12.380Z,13.72
2023-01-08T02:33:41.177Z,13.76
2023-01-08T02:36:24.086Z,13.81
2023-01-08T02:39:15.316Z,13.84
2023-01-08T02:41:51.461Z,13.88
2023-01-08T02:44:54.087Z,13.92
2023-01-08T02:47:45.057Z,13.88
2023-01-08T02:50:36.891Z,13.85
2023-01-08T02:53:25.701Z,13.86
2023-01-08T02:55:57.897Z,13.85
2023-01-08T02:58:27.949Z,13.87
2023-01-08T03:00:55.264Z,13.87
2023-01-08T03:03:27.386Z,13.89
2023-01-08T03:06:03.189Z,13.88
2023-01-08T03:08:34.390Z,13.89
2023-01-08T03:11:11.251Z,13.92
2023-01-08T03:14:00.570Z,13.93
2023-01-08T03:16:38.364Z,13.89
2023-01-08T03:19:54.950Z,13.89
2023-01-08T03:22:24.179Z,13.85
2023-01-08T03:24:54.879Z,13.85
2023-01-08T03:27:28.311Z,13.84
2023-01-08T03:29:58.577Z,13.83
2023-01-08T03:32:48.381Z,13.82
2023-01-08T03:35:40.484Z,13.79
2023-01-08T03:38:18.905Z,13.83
2023-01-08T03:40:51.890Z,13.84
2023-01-08T03:43:18.993Z,13.86
2023-01-08T03:45:57.429Z,13.89
2023-01-08T03:49:13.381Z,13.93
2023-01-08T03:51:24.997Z,13.95
2023-01-08T03:53:56.835Z,13.96
2023-01-08T03:56:23.750Z,14.01
2023-01-08T04:01:36.209Z,14.02
2023-01-08T04:04:03.360Z,14.05
2023-01-08T04:06:37.137Z,14.08
2023-01-08T04:09:07.549Z,14.12
2023-01-08T04:11:40.744Z,14.15
2023-01-08T04:14:08.529Z,14.17
2023-01-08T04:16:35.615Z,14.20
2023-01-08T04:19:02.600Z,14.23
2023-01-08T04:21:29.714Z,14.25
2023-01-08T04:28:21.352Z,14.26
2023-01-08T04:34:21.555Z,14.20
2023-01-08T04:36:55.908Z,14.21
2023-01-08T04:39:22.978Z,14.21
2023-01-08T04:42:20.938Z,14.23
2023-01-08T04:44:47.976Z,14.19
2023-01-08T04:47:15.954Z,14.21
2023-01-08T04:49:48.925Z,14.19
2023-01-08T04:52:15.908Z,14.17
2023-01-08T04:54:42.944Z,14.16
2023-01-08T04:57:10.854Z,14.13
2023-01-08T04:59:38.041Z,14.11
2023-01-08T05:02:12.504Z,14.07
2023-01-08T05:04:39.615Z,13.95
2023-01-08T05:07:07.975Z,13.91
2023-01-08T05:09:34.962Z,13.89
2023-01-08T05:12:19.705Z,13.86
2023-01-08T05:14:47.732Z,13.82
2023-01-08T05:19:58.818Z,13.78
2023-01-08T05:22:25.844Z,13.76
2023-01-08T05:24:52.833Z,13.75
2023-01-08T05:27:21.199Z,13.76
2023-01-08T05:29:48.218Z,13.76
2023-01-08T05:32:17.057Z,13.75
2023-01-08T05:34:44.940Z,13.71
2023-01-08T05:37:12.236Z,13.65
2023-01-08T05:39:39.267Z,13.61
2023-01-08T05:42:07.275Z,13.56
2023-01-08T05:44:38.424Z,13.50
2023-01-08T05:47:05.471Z,13.44
2023-01-08T05:49:54.386Z,13.37
2023-01-08T05:52:23.173Z,13.35
2023-01-08T05:55:15.325Z,13.32
2023-01-08T05:57:45.743Z,13.30
2023-01-08T06:00:15.856Z,13.30
2023-01-08T06:02:47.711Z,13.31
2023-01-08T06:05:28.588Z,13.31
2023-01-08T06:07:55.606Z,13.34
2023-01-08T06:10:47.875Z,13.37
2023-01-08T06:13:22.387Z,13.38
2023-01-08T06:15:49.540Z,13.37
2023-01-08T06:18:16.739Z,13.37
2023-01-08T06:20:43.791Z,13.37
2023-01-08T06:23:11.866Z,13.38
2023-01-08T06:25:38.907Z,13.40
2023-01-08T06:28:24.078Z,13.41
2023-01-08T06:31:00.552Z,13.39
2023-01-08T06:33:27.807Z,13.40
2023-01-08T06:36:08.260Z,13.42
2023-01-08T06:38:43.867Z,13.44
2023-01-08T06:41:19.333Z,13.46
2023-01-08T06:43:49.685Z,13.46
2023-01-08T06:46:16.685Z,13.47
2023-01-08T06:48:45.621Z,13.48
2023-01-08T06:51:12.595Z,13.48
2023-01-08T06:56:28.647Z,13.48
2023-01-08T06:58:56.848Z,13.46
2023-01-08T07:01:24.384Z,13.45
2023-01-08T07:03:51.391Z,13.42
2023-01-08T07:06:22.684Z,13.39
2023-01-08T07:08:50.186Z,13.34
2023-01-08T07:11:17.923Z,13.32
2023-01-08T07:13:44.833Z,13.30
2023-01-08T07:16:14.295Z,13.26
2023-01-08T07:18:43.044Z,13.22
2023-01-08T07:21:28.485Z,13.16
2023-01-08T07:23:59.705Z,13.14
2023-01-08T07:26:27.817Z,13.13
2023-01-08T07:28:54.924Z,13.16
2023-01-08T07:31:22.214Z,13.17
2023-01-08T07:33:49.392Z,13.20
2023-01-08T07:36:16.764Z,13.24
2023-01-08T07:38:43.685Z,13.28
2023-01-08T07:41:13.506Z,13.29
2023-01-08T07:43:40.528Z,13.33
2023-01-08T07:46:07.752Z,13.37
2023-01-08T07:48:34.923Z,13.42
2023-01-08T07:51:07.588Z,13.45
2023-01-08T07:53:36.178Z,13.49
2023-01-08T07:56:06.003Z,13.54
2023-01-08T07:58:33.106Z,13.62
2023-01-08T08:01:00.933Z,13.70
2023-01-08T08:03:28.247Z,13.79
2023-01-08T08:06:20.696Z,13.96
2023-01-08T08:08:48.005Z,14.13
2023-01-08T08:11:25.204Z,14.29
2023-01-08T08:13:53.807Z,14.46
2023-01-08T08:16:21.721Z,14.59
2023-01-08T08:18:48.659Z,14.92
2023-01-08T08:21:15.532Z,15.28
2023-01-08T08:23:42.932Z,15.52
2023-01-08T08:26:10.012Z,15.70
2023-01-08T08:28:36.964Z,15.77
2023-01-08T08:31:03.943Z,15.73
2023-01-08T08:33:31.208Z,15.64
2023-01-08T08:35:58.582Z,15.50
2023-01-08T08:38:26.667Z,15.32
2023-01-08T08:40:53.869Z,15.25
2023-01-08T08:43:20.842Z,15.20
2023-01-08T08:45:47.927Z,15.05
2023-01-08T08:48:16.837Z,15.03
2023-01-08T08:50:43.808Z,14.95
2023-01-08T08:53:10.856Z,14.97
2023-01-08T08:55:37.859Z,14.94
2023-01-08T08:58:13.924Z,14.95
2023-01-08T09:00:43.205Z,14.91
2023-01-08T09:03:15.586Z,14.95
2023-01-08T09:05:45.631Z,14.96
2023-01-08T09:08:31.696Z,14.99
2023-01-08T09:11:17.376Z,14.95
2023-01-08T09:16:29.325Z,15.11
2023-01-08T09:18:56.644Z,15.20
2023-01-08T09:21:23.664Z,15.32
2023-01-08T09:23:50.841Z,15.41
2023-01-08T09:26:17.847Z,15.50
2023-01-08T09:28:44.891Z,15.52
2023-01-08T09:31:11.902Z,15.55
2023-01-08T09:33:39.017Z,15.55
2023-01-08T09:36:11.100Z,15.63
2023-01-08T09:38:38.056Z,15.63
2023-01-08T09:41:12.967Z,15.67
2023-01-08T09:43:59.553Z,15.78
2023-01-08T09:46:46.930Z,15.85
2023-01-08T09:49:21.870Z,15.97
2023-01-08T09:51:49.056Z,16.14
2023-01-08T09:54:17.766Z,16.32
2023-01-08T09:56:45.032Z,16.87
2023-01-08T09:59:16.818Z,17.20
2023-01-08T10:01:45.994Z,17.51
2023-01-08T10:04:24.221Z,17.82
2023-01-08T10:07:24.767Z,18.64
2023-01-08T10:09:53.092Z,18.98
2023-01-08T10:12:32.281Z,19.14
2023-01-08T10:15:02.930Z,19.31
2023-01-08T10:17:48.413Z,19.39
2023-01-08T10:20:41.434Z,19.77
2023-01-08T10:23:17.637Z,20.76
2023-01-08T10:26:02.548Z,21.59
2023-01-08T10:28:31.087Z,22.08
2023-01-08T10:31:11.468Z,22.32
2023-01-08T10:33:43.778Z,22.11
2023-01-08T10:36:19.335Z,21.75
2023-01-08T10:39:01.027Z,21.49
2023-01-08T10:41:28.807Z,21.37
2023-01-08T10:47:38.422Z,21.21
2023-01-08T10:50:38.046Z,21.73
2023-01-08T10:53:18.351Z,21.62
2023-01-08T10:55:45.356Z,21.51
2023-01-08T10:58:15.463Z,21.40
2023-01-08T11:00:42.731Z,21.18
2023-01-08T11:03:30.071Z,20.90
2023-01-08T11:05:57.503Z,20.36
2023-01-08T11:08:25.015Z,20.00
2023-01-08T11:11:00.129Z,19.72
2023-01-08T11:13:28.694Z,19.55
2023-01-08T11:16:07.125Z,19.52
2023-01-08T11:18:46.904Z,19.45
2023-01-08T11:21:25.934Z,19.47
2023-01-08T11:24:02.372Z,19.47
2023-01-08T11:26:29.699Z,19.40
2023-01-08T11:29:06.389Z,19.38
2023-01-08T11:32:07.180Z,19.34
2023-01-08T11:35:03.618Z,19.40
2023-01-08T11:37:40.749Z,19.41
2023-01-08T11:43:11.201Z,19.36
2023-01-08T11:46:16.684Z,19.42
2023-01-08T11:49:01.272Z,19.37
2023-01-08T11:51:58.534Z,19.38
2023-01-08T11:54:44.129Z,19.39
2023-01-08T11:57:24.686Z,19.42
2023-01-08T12:00:16.551Z,19.40
2023-01-08T12:02:53.303Z,19.32
2023-01-08T12:05:45.208Z,19.21
2023-01-08T12:08:41.690Z,19.03
2023-01-08T12:11:27.765Z,18.86
2023-01-08T12:14:17.555Z,18.70
2023-01-08T12:17:04.388Z,18.55
2023-01-08T12:19:52.221Z,18.41
2023-01-08T12:22:56.684Z,18.34
2023-01-08T12:25:47.867Z,18.33
2023-01-08T12:28:33.473Z,18.67
2023-01-08T12:31:00.820Z,19.85
2023-01-08T12:33:33.633Z,19.40
2023-01-08T12:36:06.246Z,19.21
2023-01-08T12:38:38.239Z,19.01
2023-01-08T12:41:21.854Z,18.86
2023-01-08T12:44:11.576Z,18.70
2023-01-08T12:47:02.949Z,18.57
2023-01-08T12:49:51.568Z,18.61
2023-01-08T12:52:45.251Z,18.65
2023-01-08T12:55:33.887Z,18.68
2023-01-08T12:58:11.714Z,18.64
2023-01-08T13:01:11.040Z,18.54
2023-01-08T13:03:49.211Z,18.38
2023-01-08T13:06:20.751Z,18.22
2023-01-08T13:08:51.592Z,18.17
2023-01-08T13:11:33.658Z,18.18
2023-01-08T13:14:10.699Z,18.12
2023-01-08T13:17:00.406Z,18.12
2023-01-08T13:19:47.065Z,18.23
2023-01-08T13:22:33.083Z,18.20
2023-01-08T13:28:00.725Z,18.10
2023-01-08T13:30:35.736Z,18.03
2023-01-08T13:33:03.031Z,18.01
2023-01-08T13:35:31.669Z,18.00
2023-01-08T13:38:11.209Z,18.03
2023-01-08T13:40:44.552Z,18.04
2023-01-08T13:43:36.102Z,18.11
2023-01-08T13:46:03.221Z,18.16
2023-01-08T13:49:01.677Z,18.21
2023-01-08T13:51:42.936Z,18.19
2023-01-08T13:54:12.876Z,18.12
2023-01-08T13:56:45.648Z,18.09
2023-01-08T13:59:41.098Z,18.20
2023-01-08T14:02:28.849Z,18.06
2023-01-08T14:04:57.382Z,17.86
2023-01-08T14:07:31.120Z,17.78
2023-01-08T14:10:37.621Z,17.74
2023-01-08T14:13:08.766Z,17.48
2023-01-08T14:15:38.623Z,17.45
2023-01-08T14:18:06.655Z,17.39
2023-01-08T14:20:36.973Z,17.34
2023-01-08T14:23:38.201Z,17.43
2023-01-08T14:26:10.713Z,17.45
2023-01-08T14:31:27.532Z,17.80
2023-01-08T14:34:16.154Z,17.86
2023-01-08T14:37:02.527Z,17.80
2023-01-08T14:39:35.310Z,17.82
2023-01-08T14:42:28.682Z,17.88
2023-01-08T14:44:58.612Z,17.86
2023-01-08T14:47:30.828Z,17.92
2023-01-08T14:49:58.615Z,17.89
2023-01-08T14:52:26.812Z,17.88
2023-01-08T14:54:56.529Z,17.88
2023-01-08T14:57:24.351Z,17.92
2023-01-08T14:59:57.852Z,17.94
2023-01-08T15:02:39.409Z,17.98
2023-01-08T15:05:32.138Z,18.05
2023-01-08T15:08:22.865Z,18.03
2023-01-08T15:11:18.948Z,18.06
2023-01-08T15:13:48.501Z,18.11
2023-01-08T15:16:30.061Z,18.17
2023-01-08T15:19:07.649Z,18.15
2023-01-08T15:21:35.403Z,18.10
2023-01-08T15:24:05.876Z,18.07
2023-01-08T15:26:33.859Z,18.01
2023-01-08T15:29:24.348Z,18.00
2023-01-08T15:31:51.487Z,17.96
2023-01-08T15:34:21.732Z,17.93
2023-01-08T15:36:51.804Z,17.88
2023-01-08T15:39:27.424Z,17.86
2023-01-08T15:42:13.839Z,17.80
2023-01-08T15:44:41.213Z,17.72
2023-01-08T15:47:11.873Z,17.68
2023-01-08T15:49:38.800Z,17.71
2023-01-08T15:52:05.881Z,17.70
2023-01-08T15:54:32.791Z,17.71
2023-01-08T15:57:00.888Z,17.72
2023-01-08T15:59:31.680Z,17.75
2023-01-08T16:01:58.887Z,17.67
2023-01-08T16:04:25.841Z,17.60
2023-01-08T16:06:52.867Z,17.53
2023-01-08T16:12:29.156Z,17.40
2023-01-08T16:15:15.080Z,17.30
2023-01-08T16:17:43.359Z,17.21
2023-01-08T16:20:11.696Z,17.12
2023-01-08T16:22:38.814Z,17.04
2023-01-08T16:29:15.070Z,16.86
2023-01-08T16:31:50.278Z,16.79
2023-01-08T16:34:21.233Z,16.71
2023-01-08T16:36:49.520Z,16.63
2023-01-08T16:39:18.065Z,16.61
2023-01-08T16:41:47.562Z,16.59
2023-01-08T16:44:21.399Z,16.60
2023-01-08T16:46:52.059Z,16.51
2023-01-08T16:49:19.251Z,16.53
2023-01-08T16:51:46.499Z,16.48
2023-01-08T16:54:15.357Z,16.44
2023-01-08T16:56:42.947Z,16.43
2023-01-08T16:59:22.376Z,16.39
2023-01-08T17:01:51.993Z,16.36
2023-01-08T17:04:29.707Z,16.33
2023-01-08T17:07:00.349Z,16.32
2023-01-08T17:09:35.044Z,16.31
2023-01-08T17:12:23.575Z,16.30
2023-01-08T17:14:53.461Z,16.26
2023-01-08T17:17:29.263Z,16.25
2023-01-08T17:19:56.729Z,16.22
2023-01-08T17:22:26.632Z,16.16
2023-01-08T17:24:53.549Z,16.11
2023-01-08T17:27:22.516Z,16.07
2023-01-08T17:29:49.884Z,16.02
2023-01-08T17:32:16.861Z,15.99
2023-01-08T17:34:44.121Z,15.97
2023-01-08T17:37:13.577Z,15.97
2023-01-08T17:39:40.629Z,15.96
2023-01-08T17:42:30.968Z,15.96
2023-01-08T17:45:03.055Z,15.96
2023-01-08T17:47:31.011Z,15.94
2023-01-08T17:49:58.240Z,15.97
2023-01-08T17:52:26.522Z,15.96
2023-01-08T17:54:54.415Z,15.97
2023-01-08T17:57:22.446Z,15.89
2023-01-08T18:00:00.048Z,15.86
2023-01-08T18:02:28.016Z,15.78
2023-01-08T18:04:55.170Z,15.81
2023-01-08T18:07:24.309Z,15.80
2023-01-08T18:10:04.310Z,15.79
2023-01-08T18:12:36.654Z,15.79
2023-01-08T18:15:33.203Z,15.81
2023-01-08T18:18:02.420Z,15.78
2023-01-08T18:20:39.430Z,15.76
2023-01-08T18:23:06.485Z,15.78
2023-01-08T18:25:35.425Z,15.73
2023-01-08T18:28:04.188Z,15.68
2023-01-08T18:30:46.012Z,15.70
2023-01-08T18:33:52.214Z,15.67
2023-01-08T18:36:22.824Z,15.58
2023-01-08T18:38:50.073Z,15.53
2023-01-08T18:41:37.715Z,15.55
2023-01-08T18:44:11.381Z,15.48
2023-01-08T18:53:50.476Z,15.30
2023-01-08T18:56:28.227Z,15.28
2023-01-08T18:58:56.230Z,15.27
2023-01-08T19:01:24.015Z,15.23
2023-01-08T19:03:55.903Z,15.20
2023-01-08T19:06:24.153Z,15.20
2023-01-08T19:08:56.237Z,15.21
2023-01-08T19:12:11.984Z,15.23
2023-01-08T19:14:39.284Z,15.18
2023-01-08T19:17:06.476Z,15.21
2023-01-08T19:19:33.485Z,15.19
2023-01-08T19:22:01.122Z,15.21
2023-01-08T19:24:31.466Z,15.19
2023-01-08T19:26:58.391Z,15.18
2023-01-08T19:29:32.418Z,15.16
2023-01-08T19:31:59.516Z,15.16
2023-01-08T19:34:26.494Z,15.15
2023-01-08T19:37:01.269Z,15.16
2023-01-08T19:39:41.779Z,15.16
2023-01-08T19:42:34.946Z,15.13
2023-01-08T19:45:41.717Z,15.11
2023-01-08T19:48:09.095Z,15.10
2023-01-08T19:50:39.852Z,15.09
2023-01-08T19:53:15.148Z,15.11
2023-01-08T19:55:42.367Z,15.08
2023-01-08T19:58:09.407Z,15.09
2023-01-08T20:00:39.277Z,15.12
2023-01-08T20:03:12.370Z,15.16
2023-01-08T20:05:45.491Z,15.21
2023-01-08T20:12:20.276Z,15.28
2023-01-08T20:15:57.317Z,15.34
2023-01-08T20:22:40.677Z,15.37
2023-01-08T20:29:04.849Z,15.40
2023-01-08T20:31:34.633Z,15.38
2023-01-08T20:43:29.275Z,15.47
2023-01-08T20:45:56.530Z,15.50
2023-01-08T20:52:16.406Z,15.60
2023-01-08T20:55:06.078Z,15.58
2023-01-08T20:58:33.361Z,15.60
2023-01-08T21:06:24.281Z,15.58
2023-01-08T21:08:58.957Z,15.54
2023-01-08T21:11:27.182Z,15.35
2023-01-08T21:13:55.994Z,15.32
2023-01-08T21:16:45.673Z,15.35
2023-01-08T21:19:15.187Z,15.25
2023-01-08T21:21:42.208Z,15.31
2023-01-08T21:24:12.878Z,15.33
2023-01-08T21:27:01.801Z,15.38
2023-01-08T21:29:29.448Z,15.43
2023-01-08T21:31:57.211Z,15.42
2023-01-08T21:34:24.176Z,15.45
2023-01-08T21:37:09.638Z,15.48
2023-01-08T21:39:38.999Z,15.48
2023-01-08T21:42:24.503Z,15.46
2023-01-08T21:45:10.086Z,15.46
2023-01-08T21:47:37.065Z,15.40
2023-01-08T21:50:04.136Z,15.38
2023-01-08T21:53:08.524Z,15.38
2023-01-08T21:55:35.494Z,15.39
2023-01-08T21:58:20.936Z,15.38
2023-01-08T22:00:47.846Z,15.33
2023-01-08T22:03:14.813Z,15.38
2023-01-08T22:06:03.127Z,15.35
2023-01-08T22:08:31.382Z,15.33
2023-01-08T22:11:00.521Z,15.34
2023-01-08T22:13:28.103Z,15.30
2023-01-08T22:16:07.858Z,15.25
2023-01-08T22:18:35.784Z,15.22
2023-01-08T22:23:57.203Z,15.17
2023-01-08T22:26:30.704Z,15.16
2023-01-08T22:28:59.896Z,15.15
2023-01-08T22:31:35.605Z,15.13
2023-01-08T22:34:05.612Z,15.12
2023-01-08T22:36:32.568Z,15.09
2023-01-08T22:38:59.642Z,15.10
2023-01-08T22:41:26.622Z,15.08
2023-01-08T22:43:56.992Z,15.09
2023-01-08T22:46:24.728Z,15.08
2023-01-08T22:49:01.522Z,15.08
2023-01-08T22:51:28.792Z,15.07
2023-01-08T22:54:03.726Z,15.06
2023-01-08T22:56:30.944Z,15.02
2023-01-08T22:58:58.231Z,15.01
2023-01-08T23:01:29.469Z,14.99
2023-01-08T23:04:00.156Z,14.96
2023-01-08T23:06:29.545Z,14.93
2023-01-08T23:08:58.369Z,14.90
2023-01-08T23:11:27.940Z,14.87
2023-01-08T23:14:20.055Z,14.83
2023-01-08T23:16:47.148Z,14.76
2023-01-08T23:19:15.180Z,14.73
2023-01-08T23:21:45.947Z,14.71
2023-01-08T23:24:13.909Z,14.67
2023-01-08T23:26:41.932Z,14.65
2023-01-08T23:29:09.610Z,14.63
2023-01-08T23:31:41.280Z,14.60
2023-01-08T23:34:08.430Z,14.58
2023-01-08T23:36:35.979Z,14.57
2023-01-08T23:39:04.901Z,14.55
2023-01-08T23:41:34.573Z,14.53
2023-01-08T23:44:07.413Z,14.51
2023-01-08T23:46:35.422Z,14.48
2023-01-08T23:49:02.393Z,14.45
2023-01-08T23:51:33.454Z,14.41
2023-01-08T23:54:00.507Z,14.38
2023-01-08T23:56:27.507Z,14.37
2023-01-08T23:58:57.847Z,14.36
